Time;durP1;ratioP1;P1;durP2;ratioP2;P2;SDS_P1;SDS_P2;PMS_P1;PMS_P2;Temp;Humidity;BMP_temperature;BMP_pressure;BME280_temperature;BME280_humidity;BME280_pressure;Samples;Min_cycle;Max_cycle;Signal;HPM_P1;HPM_P2
2022/03/01 00:01:53;;;;;;;9.02;6.47;;;8.70;99.90;;;;;;5105530;28;20028;-74
2022/03/01 00:04:20;;;;;;;9.82;6.65;;;8.60;99.90;;;;;;5125072;28;20038;-74
2022/03/01 00:06:45;;;;;;;10.35;6.68;;;8.60;99.90;;;;;;5125090;28;20103;-72
2022/03/01 00:09:11;;;;;;;10.38;6.75;;;8.50;99.90;;;;;;5126159;28;20024;-74
2022/03/01 00:11:38;;;;;;;11.07;6.70;;;8.50;99.90;;;;;;5125915;28;20366;-74
2022/03/01 00:14:05;;;;;;;9.07;6.80;;;8.50;99.90;;;;;;5126045;28;20027;-72
2022/03/01 00:16:32;;;;;;;9.93;6.40;;;8.50;99.90;;;;;;5107885;28;20311;-74
2022/03/01 00:18:59;;;;;;;9.15;6.60;;;8.60;99.90;;;;;;5125949;27;20061;-73
2022/03/01 00:21:26;;;;;;;9.73;6.38;;;8.60;99.90;;;;;;5125955;28;20052;-74
2022/03/01 00:23:52;;;;;;;10.90;6.80;;;8.60;99.90;;;;;;5105622;28;20019;-74
2022/03/01 00:26:18;;;;;;;12.35;7.20;;;8.60;99.90;;;;;;5125502;28;20024;-73
2022/03/01 00:28:44;;;;;;;8.68;6.80;;;8.50;99.90;;;;;;5125843;28;20016;-73
2022/03/01 00:31:10;;;;;;;8.98;6.35;;;8.50;99.90;;;;;;5107563;28;20046;-73
2022/03/01 00:33:35;;;;;;;10.13;7.50;;;8.50;99.90;;;;;;5124474;28;20310;-74
2022/03/01 00:36:01;;;;;;;9.98;7.63;;;8.40;99.90;;;;;;5125502;28;20027;-74
2022/03/01 00:38:27;;;;;;;11.27;7.50;;;8.40;99.90;;;;;;5124435;28;20188;-74
2022/03/01 00:40:53;;;;;;;12.73;8.10;;;8.50;99.90;;;;;;5125190;28;20246;-74
2022/03/01 00:43:21;;;;;;;13.23;6.95;;;8.50;99.90;;;;;;5125335;28;20314;-74
2022/03/01 00:45:47;;;;;;;12.10;7.22;;;8.40;99.90;;;;;;5114040;27;20332;-74
2022/03/01 00:48:13;;;;;;;10.20;6.78;;;8.30;99.90;;;;;;5105060;28;20315;-73
2022/03/01 00:50:38;;;;;;;13.00;7.20;;;8.30;99.90;;;;;;5103668;28;20062;-73
2022/03/01 00:53:05;;;;;;;12.40;6.95;;;8.30;99.90;;;;;;5104870;28;20315;-74
2022/03/01 00:55:30;;;;;;;12.25;7.47;;;8.20;99.90;;;;;;5103194;28;20028;-74
2022/03/01 00:57:56;;;;;;;13.43;7.90;;;8.20;99.90;;;;;;5104825;28;20023;-73
2022/03/01 01:00:22;;;;;;;12.50;7.57;;;8.20;99.90;;;;;;5104883;28;20095;-74
2022/03/01 01:02:48;;;;;;;16.40;9.18;;;8.20;99.90;;;;;;5113260;28;20326;-74
2022/03/01 01:05:14;;;;;;;14.98;8.45;;;8.20;99.90;;;;;;5124750;28;20057;-73
2022/03/01 01:07:40;;;;;;;16.58;8.95;;;8.10;99.90;;;;;;5124968;28;20022;-73
2022/03/01 01:10:07;;;;;;;14.60;8.32;;;8.20;99.90;;;;;;5123784;28;20047;-74
2022/03/01 01:12:34;;;;;;;17.02;8.80;;;8.20;99.90;;;;;;5123864;28;20028;-74
2022/03/01 01:14:59;;;;;;;17.52;9.07;;;8.20;99.90;;;;;;5124583;28;20118;-74
2022/03/01 01:17:25;;;;;;;16.15;8.93;;;8.30;99.90;;;;;;5123589;28;20027;-74
2022/03/01 01:19:51;;;;;;;15.25;8.55;;;8.20;99.90;;;;;;5124794;28;20117;-74
2022/03/01 01:25:03;;;;;;;14.35;9.10;;;8.20;99.90;;;;;;5121953;28;20090;-74
2022/03/01 01:27:29;;;;;;;14.55;8.15;;;8.20;99.90;;;;;;5123275;28;20019;-73
2022/03/01 01:29:54;;;;;;;19.42;10.13;;;8.20;99.90;;;;;;5124158;28;20330;-73
2022/03/01 01:32:20;;;;;;;17.70;9.38;;;8.10;99.90;;;;;;5123420;28;20023;-73
2022/03/01 01:34:46;;;;;;;16.20;9.70;;;8.10;99.90;;;;;;5124234;28;20028;-73
2022/03/01 01:37:12;;;;;;;19.27;10.15;;;8.10;99.90;;;;;;5124480;28;20029;-73
2022/03/01 01:39:37;;;;;;;17.38;9.52;;;8.10;99.90;;;;;;5124214;28;20039;-72
2022/03/01 01:42:04;;;;;;;23.70;10.10;;;8.10;99.90;;;;;;5106049;28;20047;-73
2022/03/01 01:44:31;;;;;;;22.83;10.88;;;8.10;99.90;;;;;;5123143;28;20083;-73
2022/03/01 01:46:57;;;;;;;17.70;10.32;;;8.00;99.90;;;;;;5123116;28;20042;-73
2022/03/01 01:49:23;;;;;;;15.95;9.25;;;8.00;99.90;;;;;;5124372;28;20072;-73
2022/03/01 01:51:48;;;;;;;19.40;9.93;;;7.90;99.90;;;;;;5123859;28;20078;-74
2022/03/01 01:54:14;;;;;;;19.20;9.48;;;8.00;99.90;;;;;;5089172;28;20047;-73
2022/03/01 01:56:40;;;;;;;19.65;9.77;;;8.00;99.90;;;;;;5123511;28;20024;-73
2022/03/01 01:59:06;;;;;;;19.27;9.70;;;8.00;99.90;;;;;;5124145;28;20051;-74
2022/03/01 02:01:31;;;;;;;18.58;9.05;;;8.00;99.90;;;;;;5123816;28;20253;-73
2022/03/01 02:03:59;;;;;;;16.85;9.15;;;8.00;99.90;;;;;;5105699;28;20065;-74
2022/03/01 02:06:25;;;;;;;21.73;9.52;;;7.90;99.90;;;;;;5105813;28;20064;-74
2022/03/01 02:08:51;;;;;;;20.95;8.77;;;7.90;99.90;;;;;;5105517;28;20027;-73
2022/03/01 02:11:16;;;;;;;17.08;7.70;;;7.90;99.90;;;;;;5122657;28;20027;-74
2022/03/01 02:13:42;;;;;;;17.85;8.27;;;7.90;99.90;;;;;;5122496;28;20028;-74
2022/03/01 02:16:09;;;;;;;20.08;7.78;;;7.90;99.90;;;;;;5121712;28;20047;-74
2022/03/01 02:18:35;;;;;;;19.45;7.35;;;7.90;99.90;;;;;;5105543;28;20035;-74
2022/03/01 02:21:01;;;;;;;19.63;7.05;;;7.90;99.90;;;;;;5123349;28;20325;-74
2022/03/01 02:23:27;;;;;;;20.65;6.85;;;7.90;99.90;;;;;;5105307;28;20046;-74
2022/03/01 02:25:53;;;;;;;20.33;6.97;;;7.80;99.90;;;;;;5121731;28;20030;-75
2022/03/01 02:28:19;;;;;;;20.00;6.50;;;7.80;99.90;;;;;;5105364;28;20043;-74
2022/03/01 02:30:44;;;;;;;26.27;7.90;;;7.70;99.90;;;;;;5123384;28;20020;-74
2022/03/01 02:33:10;;;;;;;21.20;5.75;;;7.70;99.90;;;;;;5105496;28;20244;-74
2022/03/01 02:35:36;;;;;;;17.00;6.13;;;7.70;99.90;;;;;;5123737;28;20031;-74
2022/03/01 02:38:03;;;;;;;16.40;6.07;;;7.70;99.90;;;;;;5122960;28;20404;-74
2022/03/01 02:40:29;;;;;;;21.83;6.95;;;7.70;99.90;;;;;;5123403;28;20043;-73
2022/03/01 02:42:55;;;;;;;18.02;6.18;;;7.80;99.90;;;;;;5121927;28;20051;-73
2022/03/01 02:45:21;;;;;;;16.02;5.70;;;7.80;99.90;;;;;;5123429;28;20069;-75
2022/03/01 02:47:48;;;;;;;22.40;5.25;;;7.70;99.90;;;;;;5122129;28;20023;-74
2022/03/01 02:50:14;;;;;;;18.08;5.35;;;7.70;99.90;;;;;;5123015;28;20376;-73
2022/03/01 02:52:40;;;;;;;18.60;5.78;;;7.70;99.90;;;;;;5121913;28;20023;-73
2022/03/01 02:55:06;;;;;;;14.02;5.25;;;7.60;99.90;;;;;;5121981;28;20219;-74
2022/03/01 02:57:32;;;;;;;21.98;5.82;;;7.60;99.90;;;;;;5122866;28;20065;-74
2022/03/01 02:59:58;;;;;;;19.85;5.45;;;7.60;99.90;;;;;;5123236;28;20233;-74
2022/03/01 03:02:23;;;;;;;21.95;5.85;;;7.50;99.90;;;;;;5122031;28;20034;-73
2022/03/01 03:04:49;;;;;;;27.25;5.80;;;7.40;99.90;;;;;;5123148;28;20299;-73
2022/03/01 03:07:15;;;;;;;22.90;5.63;;;7.40;99.90;;;;;;5123003;28;20028;-74
2022/03/01 03:09:41;;;;;;;25.95;6.13;;;7.40;99.90;;;;;;5122973;28;20020;-73
2022/03/01 03:12:08;;;;;;;32.28;6.38;;;7.30;99.90;;;;;;5121923;28;20027;-74
2022/03/01 03:14:34;;;;;;;18.80;4.97;;;7.30;99.90;;;;;;5123169;28;20035;-74
2022/03/01 03:17:00;;;;;;;20.02;5.45;;;7.30;99.90;;;;;;5122682;28;20036;-73
2022/03/01 03:19:26;;;;;;;24.75;6.55;;;7.30;99.90;;;;;;5123357;28;20043;-74
2022/03/01 03:21:52;;;;;;;19.17;5.65;;;7.30;99.90;;;;;;5123008;28;20020;-73
2022/03/01 03:24:18;;;;;;;24.70;5.40;;;7.30;99.90;;;;;;5121703;28;20093;-74
2022/03/01 03:26:44;;;;;;;22.17;5.47;;;7.30;99.90;;;;;;5120751;28;20091;-74
2022/03/01 03:29:10;;;;;;;27.05;5.43;;;7.30;99.90;;;;;;5125503;28;20027;-73
2022/03/01 03:31:38;;;;;;;19.80;5.30;;;7.30;99.90;;;;;;5125698;28;20042;-73
2022/03/01 03:34:05;;;;;;;19.95;4.57;;;7.30;99.90;;;;;;5126856;28;20075;-72
2022/03/01 03:36:31;;;;;;;24.80;5.65;;;7.30;99.90;;;;;;5126709;28;20019;-73
2022/03/01 03:38:57;;;;;;;25.23;5.63;;;7.30;99.90;;;;;;5125361;28;20057;-73
2022/03/01 03:41:22;;;;;;;24.85;5.75;;;7.30;99.90;;;;;;5125265;28;20055;-73
2022/03/01 03:43:48;;;;;;;30.40;6.85;;;7.30;99.90;;;;;;5091646;28;20098;-74
2022/03/01 03:46:13;;;;;;;23.83;5.75;;;7.20;99.90;;;;;;5104825;28;20204;-73
2022/03/01 03:48:41;;;;;;;26.10;5.97;;;7.20;99.90;;;;;;5088132;28;20043;-73
2022/03/01 03:51:06;;;;;;;26.35;5.80;;;7.20;99.90;;;;;;5104846;28;20055;-73
2022/03/01 03:53:32;;;;;;;20.20;5.63;;;7.10;99.90;;;;;;5105949;28;20099;-73
2022/03/01 03:55:57;;;;;;;24.85;5.82;;;7.10;99.90;;;;;;5105398;28;20091;-73
2022/03/01 03:58:23;;;;;;;27.13;5.15;;;7.10;99.90;;;;;;5104720;28;20020;-74
2022/03/01 04:00:49;;;;;;;23.10;5.68;;;7.10;99.90;;;;;;5105913;28;20079;-73
2022/03/01 04:03:14;;;;;;;27.30;6.07;;;7.10;99.90;;;;;;5118508;28;20069;-73
2022/03/01 04:05:40;;;;;;;26.15;5.38;;;7.10;99.90;;;;;;5126266;28;20235;-73
2022/03/01 04:08:07;;;;;;;22.42;5.45;;;7.10;99.90;;;;;;5107777;28;20090;-73
2022/03/01 04:10:33;;;;;;;32.00;6.28;;;7.00;99.90;;;;;;5126177;28;20065;-73
2022/03/01 04:12:58;;;;;;;15.10;5.03;;;7.00;99.90;;;;;;5126041;28;20078;-74
2022/03/01 04:15:24;;;;;;;28.88;5.22;;;7.10;99.90;;;;;;5126151;28;20065;-73
2022/03/01 04:17:50;;;;;;;24.05;6.30;;;7.10;99.90;;;;;;5124602;28;20128;-73
2022/03/01 04:20:16;;;;;;;23.98;5.43;;;7.10;99.90;;;;;;5126070;28;20031;-74
2022/03/01 04:22:42;;;;;;;23.10;6.00;;;7.10;99.90;;;;;;5125763;28;20019;-74
2022/03/01 04:25:09;;;;;;;26.50;5.95;;;7.10;99.90;;;;;;5124613;28;20081;-74
2022/03/01 04:27:35;;;;;;;37.28;6.35;;;7.10;99.90;;;;;;5122802;28;20027;-73
2022/03/01 04:30:01;;;;;;;32.30;5.70;;;7.10;99.90;;;;;;5124691;28;20024;-75
2022/03/01 04:32:26;;;;;;;28.83;5.47;;;7.00;99.90;;;;;;5124603;28;20061;-74
2022/03/01 04:34:52;;;;;;;27.77;6.03;;;7.00;99.90;;;;;;5125585;28;20091;-73
2022/03/01 04:37:17;;;;;;;21.63;5.78;;;7.00;99.90;;;;;;5125483;28;20035;-74
2022/03/01 04:39:43;;;;;;;28.35;6.53;;;7.00;99.90;;;;;;5123327;28;20332;-73
2022/03/01 04:42:09;;;;;;;27.05;6.28;;;7.00;99.90;;;;;;5124068;28;20066;-73
2022/03/01 04:44:35;;;;;;;30.73;5.97;;;7.00;99.90;;;;;;5125553;27;20032;-74
2022/03/01 04:47:02;;;;;;;21.50;6.20;;;7.00;99.90;;;;;;5124386;28;20034;-74
2022/03/01 04:49:29;;;;;;;26.80;7.05;;;7.10;99.90;;;;;;5124119;28;20019;-74
2022/03/01 04:51:55;;;;;;;25.92;6.78;;;7.10;99.90;;;;;;5124912;28;20034;-73
2022/03/01 04:54:21;;;;;;;28.48;7.28;;;7.10;99.90;;;;;;5125697;28;20027;-74
2022/03/01 04:56:47;;;;;;;28.27;6.88;;;7.10;99.90;;;;;;5124773;28;20043;-73
2022/03/01 04:59:12;;;;;;;28.42;6.70;;;7.10;99.90;;;;;;5125085;28;20027;-74
2022/03/01 05:01:38;;;;;;;30.33;7.47;;;7.20;99.90;;;;;;5124797;28;20019;-73
2022/03/01 05:04:04;;;;;;;37.28;7.03;;;7.20;99.90;;;;;;5124992;28;20023;-73
2022/03/01 05:06:30;;;;;;;27.42;7.88;;;7.20;99.90;;;;;;5124993;28;20024;-74
2022/03/01 05:08:56;;;;;;;31.83;7.43;;;7.20;99.90;;;;;;5123659;28;20084;-74
2022/03/01 05:11:21;;;;;;;26.75;7.45;;;7.10;99.90;;;;;;5124569;28;20045;-72
2022/03/01 05:13:47;;;;;;;38.33;7.60;;;7.10;99.90;;;;;;5125007;28;20023;-72
2022/03/01 05:16:13;;;;;;;27.00;7.95;;;7.00;99.90;;;;;;5124721;28;20031;-73
2022/03/01 05:18:39;;;;;;;26.38;7.05;;;7.00;99.90;;;;;;5123522;28;20103;-73
2022/03/01 05:21:05;;;;;;;30.80;7.20;;;7.00;99.90;;;;;;5124711;28;20031;-74
2022/03/01 05:23:31;;;;;;;27.35;7.30;;;6.90;99.90;;;;;;5123674;28;20090;-74
2022/03/01 05:25:59;;;;;;;41.92;9.02;;;6.90;99.90;;;;;;5106197;28;20024;-74
2022/03/01 05:28:25;;;;;;;35.85;7.85;;;6.80;99.90;;;;;;5122371;28;20103;-73
2022/03/01 05:30:50;;;;;;;29.08;7.85;;;6.80;99.90;;;;;;5124326;28;20074;-73
2022/03/01 05:33:16;;;;;;;34.10;8.07;;;6.80;99.90;;;;;;5123426;28;20029;-73
2022/03/01 05:35:44;;;;;;;24.83;7.90;;;6.80;99.90;;;;;;5122965;28;20024;-74
2022/03/01 05:38:10;;;;;;;31.83;9.40;;;6.80;99.90;;;;;;5123036;28;20019;-74
2022/03/01 05:40:37;;;;;;;32.67;8.57;;;6.80;99.90;;;;;;5124128;28;20034;-74
2022/03/01 05:43:04;;;;;;;28.70;7.80;;;6.80;99.90;;;;;;5124317;28;20323;-75
2022/03/01 05:45:30;;;;;;;32.65;8.65;;;6.80;99.90;;;;;;5119766;28;20028;-74
2022/03/01 05:47:56;;;;;;;31.92;8.57;;;6.80;99.90;;;;;;5103746;28;20020;-73
2022/03/01 05:50:26;;;;;;;26.58;9.07;;;6.80;99.90;;;;;;5103506;28;20032;-73
2022/03/01 05:52:52;;;;;;;35.13;8.50;;;6.90;99.90;;;;;;5102216;28;20031;-74
2022/03/01 05:55:18;;;;;;;27.13;8.60;;;6.90;99.90;;;;;;5068816;28;20208;-74
2022/03/01 05:57:44;;;;;;;33.35;9.25;;;6.90;99.90;;;;;;5102072;28;20095;-74
2022/03/01 06:00:13;;;;;;;35.63;10.27;;;7.00;99.90;;;;;;5103380;28;20237;-74
2022/03/01 06:02:41;;;;;;;35.13;9.70;;;7.00;99.90;;;;;;5109729;28;20205;-73
2022/03/01 06:05:07;;;;;;;31.45;9.35;;;7.00;99.90;;;;;;5105691;28;20025;-73
2022/03/01 06:07:33;;;;;;;29.98;9.30;;;7.00;99.90;;;;;;5105479;28;20032;-73
2022/03/01 06:09:58;;;;;;;28.45;9.13;;;7.10;99.90;;;;;;5122582;28;20298;-75
2022/03/01 06:12:24;;;;;;;32.78;10.82;;;7.10;99.90;;;;;;5123473;28;20030;-74
2022/03/01 06:14:49;;;;;;;34.85;10.38;;;7.10;99.90;;;;;;5122607;28;20044;-73
2022/03/01 06:17:15;;;;;;;35.05;10.10;;;7.10;99.90;;;;;;5122557;28;20312;-73
2022/03/01 06:19:41;;;;;;;38.25;11.43;;;7.10;99.90;;;;;;5123792;28;20015;-74
2022/03/01 06:22:06;;;;;;;34.95;10.02;;;7.20;99.90;;;;;;5123272;28;20372;-74
2022/03/01 06:24:34;;;;;;;26.35;9.43;;;7.20;99.90;;;;;;5123628;28;20047;-74
2022/03/01 06:27:00;;;;;;;40.15;10.65;;;7.20;99.90;;;;;;5122110;28;20020;-74
2022/03/01 06:29:25;;;;;;;31.10;9.73;;;7.20;99.90;;;;;;5121818;28;20046;-74
2022/03/01 06:31:51;;;;;;;35.03;11.35;;;7.20;99.90;;;;;;5122215;28;20223;-74
2022/03/01 06:34:17;;;;;;;40.92;11.90;;;7.20;99.90;;;;;;5123284;28;20105;-74
2022/03/01 06:36:43;;;;;;;32.53;11.50;;;7.20;99.90;;;;;;5123060;28;20028;-75
2022/03/01 06:39:09;;;;;;;37.70;12.27;;;7.20;99.90;;;;;;5122332;28;20050;-74
2022/03/01 06:41:34;;;;;;;30.77;10.75;;;7.10;99.90;;;;;;5121189;28;20051;-74
2022/03/01 06:44:00;;;;;;;46.60;13.82;;;7.20;99.90;;;;;;5104462;28;20020;-74
2022/03/01 06:46:26;;;;;;;38.33;13.68;;;7.20;99.90;;;;;;5117911;28;20024;-74
2022/03/01 06:48:51;;;;;;;44.42;14.00;;;7.10;99.90;;;;;;5101059;28;20051;-73
2022/03/01 06:51:17;;;;;;;39.03;13.50;;;7.20;99.90;;;;;;5101311;28;20203;-73
2022/03/01 06:53:43;;;;;;;44.67;14.07;;;7.20;99.90;;;;;;5101899;28;20032;-74
2022/03/01 06:56:09;;;;;;;43.80;14.52;;;7.10;99.90;;;;;;5101546;28;20047;-75
2022/03/01 06:58:34;;;;;;;42.05;14.80;;;7.10;99.90;;;;;;5101943;28;20012;-75
2022/03/01 07:01:01;;;;;;;39.58;14.13;;;7.20;99.90;;;;;;5100625;28;20038;-74
2022/03/01 07:03:27;;;;;;;38.92;14.27;;;7.20;99.90;;;;;;5128086;28;20016;-75
2022/03/01 07:05:52;;;;;;;39.58;14.88;;;7.20;99.90;;;;;;5124568;28;20198;-73
2022/03/01 07:08:20;;;;;;;37.20;14.30;;;7.20;99.90;;;;;;5107914;28;20015;-74
2022/03/01 07:10:46;;;;;;;35.83;13.30;;;7.20;99.90;;;;;;5107571;28;20051;-74
2022/03/01 07:13:12;;;;;;;40.75;12.77;;;7.20;99.90;;;;;;5126142;28;20085;-75
2022/03/01 07:15:38;;;;;;;36.45;12.98;;;7.30;99.90;;;;;;5124551;28;20032;-73
2022/03/01 07:18:04;;;;;;;38.60;13.02;;;7.30;99.90;;;;;;5125826;28;20206;-74
2022/03/01 07:20:30;;;;;;;35.55;12.25;;;7.30;99.90;;;;;;5124463;28;20047;-75
2022/03/01 07:22:56;;;;;;;34.63;12.10;;;7.40;99.90;;;;;;5124529;28;20022;-75
2022/03/01 07:25:22;;;;;;;42.90;13.05;;;7.40;99.90;;;;;;5107466;28;20023;-74
2022/03/01 07:27:49;;;;;;;32.47;11.43;;;7.40;99.90;;;;;;5123967;28;20073;-75
2022/03/01 07:30:20;;;;;;;34.72;12.80;;;7.40;99.90;;;;;;5122634;28;20068;-74
2022/03/01 07:32:48;;;;;;;34.65;12.45;;;7.40;99.90;;;;;;5124180;28;20031;-74
2022/03/01 07:35:13;;;;;;;42.60;14.13;;;7.40;99.90;;;;;;5125380;28;20035;-76
2022/03/01 07:37:39;;;;;;;39.08;13.68;;;7.50;99.90;;;;;;5125766;28;20008;-76
2022/03/01 07:40:11;;;;;;;36.33;12.32;;;7.60;99.90;;;;;;5125455;28;20032;-75
2022/03/01 07:43:15;;;;;;;32.42;12.32;;;7.60;99.90;;;;;;5159754;27;662534;-73
2022/03/01 07:45:41;;;;;;;41.35;12.68;;;7.60;99.90;;;;;;5160708;27;20035;-76
2022/03/01 07:48:07;;;;;;;40.67;12.10;;;7.60;99.90;;;;;;5160536;27;20206;-74
2022/03/01 07:50:34;;;;;;;26.80;12.63;;;7.60;99.90;;;;;;5139181;27;20019;-74
2022/03/01 07:53:00;;;;;;;31.75;12.70;;;7.60;99.90;;;;;;5159200;27;20023;-71
2022/03/01 07:55:26;;;;;;;25.70;11.13;;;7.70;99.90;;;;;;5151105;27;20318;-72
2022/03/01 07:57:52;;;;;;;26.65;11.05;;;7.70;99.90;;;;;;5142289;27;20027;-72
2022/03/01 08:00:19;;;;;;;25.55;11.18;;;7.80;99.90;;;;;;5144190;27;20062;-73
2022/03/01 08:02:44;;;;;;;24.00;10.70;;;7.90;99.90;;;;;;5143203;27;20046;-72
2022/03/01 08:05:12;;;;;;;25.00;9.77;;;8.00;99.90;;;;;;5149331;27;20306;-72
2022/03/01 08:07:37;;;;;;;18.30;8.93;;;8.20;99.90;;;;;;5139145;27;20028;-72
2022/03/01 08:10:04;;;;;;;19.30;8.50;;;8.20;99.90;;;;;;5158523;27;20065;-72
2022/03/01 08:12:30;;;;;;;23.17;9.57;;;8.20;99.90;;;;;;5146032;27;20322;-74
2022/03/01 08:14:55;;;;;;;21.45;9.00;;;8.20;99.90;;;;;;5139326;27;20020;-75
2022/03/01 08:17:21;;;;;;;19.63;8.48;;;8.30;99.90;;;;;;5127030;27;20049;-75
2022/03/01 08:19:48;;;;;;;20.58;9.18;;;8.30;99.90;;;;;;5150169;27;20015;-73
2022/03/01 08:22:14;;;;;;;16.38;8.73;;;8.40;99.90;;;;;;5139815;27;20035;-76
2022/03/01 08:24:39;;;;;;;18.83;8.35;;;8.30;99.90;;;;;;5156162;27;20027;-77
2022/03/01 08:27:05;;;;;;;19.88;10.40;;;8.30;99.90;;;;;;5141739;27;20053;-75
2022/03/01 08:29:31;;;;;;;16.75;9.20;;;8.30;99.90;;;;;;5153807;27;20034;-76
2022/03/01 08:31:57;;;;;;;18.02;10.25;;;8.40;99.90;;;;;;5136958;28;20031;-73
2022/03/01 08:34:23;;;;;;;24.25;10.25;;;8.50;99.90;;;;;;5121849;28;20094;-74
2022/03/01 08:36:49;;;;;;;15.38;9.80;;;8.50;99.90;;;;;;5139758;27;20023;-73
2022/03/01 08:39:14;;;;;;;22.17;10.35;;;8.50;99.90;;;;;;5139679;27;20245;-76
2022/03/01 08:41:40;;;;;;;18.58;9.52;;;8.60;99.90;;;;;;5138405;28;20051;-74
2022/03/01 08:44:06;;;;;;;17.15;7.80;;;8.60;99.90;;;;;;5139109;28;20177;-72
2022/03/01 08:46:32;;;;;;;18.45;9.07;;;8.60;99.90;;;;;;5155545;27;20022;-75
2022/03/01 08:48:57;;;;;;;16.48;8.82;;;8.60;99.90;;;;;;5160093;27;20034;-74
2022/03/01 08:51:25;;;;;;;16.92;8.65;;;8.60;99.90;;;;;;5121019;27;20055;-73
2022/03/01 08:53:52;;;;;;;17.10;9.80;;;8.60;99.90;;;;;;5130114;27;20026;-73
2022/03/01 08:56:19;;;;;;;15.48;8.65;;;8.70;99.90;;;;;;5130206;27;20032;-74
2022/03/01 08:58:46;;;;;;;19.67;8.57;;;8.70;99.90;;;;;;5125675;28;20027;-75
2022/03/01 09:01:11;;;;;;;19.70;8.63;;;8.60;99.90;;;;;;5124233;28;20350;-72
2022/03/01 09:03:38;;;;;;;18.95;7.95;;;8.60;99.90;;;;;;5121838;28;20023;-75
2022/03/01 09:06:05;;;;;;;18.50;8.70;;;8.70;99.90;;;;;;5143177;27;20023;-73
2022/03/01 09:08:32;;;;;;;15.77;8.05;;;8.70;99.90;;;;;;5126263;27;20015;-75
2022/03/01 09:10:58;;;;;;;16.23;8.60;;;8.70;99.90;;;;;;5143096;27;20376;-74
2022/03/01 09:13:24;;;;;;;18.98;8.10;;;8.60;99.90;;;;;;5145723;27;20026;-73
2022/03/01 09:15:50;;;;;;;17.33;7.72;;;8.70;99.90;;;;;;5144393;27;20023;-73
2022/03/01 09:18:15;;;;;;;16.13;7.38;;;8.80;99.90;;;;;;5144547;27;20031;-75
2022/03/01 09:20:41;;;;;;;16.40;6.78;;;8.80;99.90;;;;;;5145364;27;20038;-73
2022/03/01 09:23:07;;;;;;;16.60;7.53;;;8.80;99.90;;;;;;5145085;27;20038;-74
2022/03/01 09:25:33;;;;;;;15.05;6.35;;;8.70;99.90;;;;;;5140719;27;20050;-74
2022/03/01 09:27:59;;;;;;;16.95;6.55;;;8.70;99.90;;;;;;5134890;27;20043;-73
2022/03/01 09:30:24;;;;;;;18.73;7.30;;;8.70;99.90;;;;;;5135125;27;20237;-73
2022/03/01 09:32:50;;;;;;;15.80;6.90;;;8.70;99.90;;;;;;5143649;27;20094;-72
2022/03/01 09:35:17;;;;;;;14.25;6.72;;;8.70;99.90;;;;;;5145511;27;20298;-74
2022/03/01 09:37:44;;;;;;;16.80;6.68;;;8.80;99.90;;;;;;5144753;27;20022;-73
2022/03/01 09:40:11;;;;;;;20.17;7.95;;;8.80;99.90;;;;;;5145415;27;20041;-73
2022/03/01 09:42:39;;;;;;;18.15;9.00;;;8.90;99.90;;;;;;5138932;27;20051;-73
2022/03/01 09:45:05;;;;;;;23.75;9.00;;;8.90;99.90;;;;;;5117451;28;20040;-74
2022/03/01 09:47:31;;;;;;;28.42;8.90;;;8.80;99.90;;;;;;5138757;27;20056;-73
2022/03/01 09:49:57;;;;;;;21.83;9.30;;;8.80;99.90;;;;;;5143744;27;20094;-73
2022/03/01 09:52:23;;;;;;;26.98;9.52;;;8.70;99.90;;;;;;5144937;27;20027;-72
2022/03/01 09:54:51;;;;;;;26.13;9.10;;;8.60;99.90;;;;;;5143718;27;20019;-71
2022/03/01 09:57:18;;;;;;;25.42;9.43;;;8.50;99.90;;;;;;5127047;27;20098;-72
2022/03/01 09:59:44;;;;;;;23.23;9.85;;;8.50;99.90;;;;;;5124526;28;20031;-75
2022/03/01 10:02:10;;;;;;;25.77;9.98;;;8.50;99.90;;;;;;5119879;27;20033;-71
2022/03/01 10:04:53;;;;;;;26.10;8.52;;;8.50;99.90;;;;;;5139050;27;20110;-71
2022/03/01 10:07:23;;;;;;;26.02;9.63;;;8.50;99.90;;;;;;5145003;27;20030;-73
2022/03/01 10:09:49;;;;;;;26.88;10.15;;;8.30;99.90;;;;;;5134443;27;20020;-72
2022/03/01 10:12:29;;;;;;;20.92;8.98;;;8.30;99.90;;;;;;5141801;27;20321;-72
2022/03/01 10:14:59;;;;;;;22.17;9.13;;;8.40;99.90;;;;;;5125675;27;20314;-74
2022/03/01 10:17:39;;;;;;;24.83;9.38;;;8.50;99.90;;;;;;5104088;28;20020;-74
2022/03/01 10:20:09;;;;;;;27.75;9.15;;;8.50;99.90;;;;;;5144722;27;20037;-72
2022/03/01 10:22:43;;;;;;;30.40;9.50;;;8.40;99.90;;;;;;5136786;27;20187;-75
2022/03/01 10:25:09;;;;;;;28.48;9.23;;;8.40;99.90;;;;;;5123879;28;20015;-73
2022/03/01 10:27:35;;;;;;;26.00;8.93;;;8.40;99.90;;;;;;5122126;28;20027;-73
2022/03/01 10:30:04;;;;;;;28.45;9.23;;;8.50;99.90;;;;;;5123565;28;20315;-75
2022/03/01 10:32:29;;;;;;;32.72;9.45;;;8.50;99.90;;;;;;5121496;28;20324;-72
2022/03/01 10:34:58;;;;;;;26.95;8.63;;;8.50;99.90;;;;;;5123637;28;20031;-73
2022/03/01 10:37:27;;;;;;;18.85;8.82;;;8.50;99.90;;;;;;5123958;28;20077;-73
2022/03/01 10:40:15;;;;;;;23.33;8.38;;;8.50;99.90;;;;;;5105752;28;20023;-76
2022/03/01 10:42:42;;;;;;;20.65;7.50;;;8.60;99.90;;;;;;5121762;28;20051;-73
2022/03/01 10:45:09;;;;;;;18.23;7.55;;;8.60;99.90;;;;;;5128848;27;20076;-75
2022/03/01 10:47:37;;;;;;;20.38;8.73;;;8.70;99.90;;;;;;5128851;27;20027;-75
2022/03/01 10:50:10;;;;;;;22.98;8.98;;;8.70;99.90;;;;;;5122486;28;20087;-73
2022/03/01 10:52:39;;;;;;;19.67;8.27;;;8.80;99.90;;;;;;5105636;28;20035;-71
2022/03/01 10:55:06;;;;;;;22.48;8.27;;;8.60;99.90;;;;;;5123046;28;20042;-73
2022/03/01 10:57:32;;;;;;;25.85;8.77;;;8.60;99.90;;;;;;5121994;28;20032;-70
2022/03/01 10:59:58;;;;;;;24.48;8.45;;;8.60;99.90;;;;;;5131617;27;20112;-74
2022/03/01 11:02:24;;;;;;;24.85;9.05;;;8.60;99.90;;;;;;5139929;27;20053;-74
2022/03/01 11:04:51;;;;;;;21.73;7.93;;;8.60;99.90;;;;;;5134043;27;20040;-71
2022/03/01 11:07:18;;;;;;;27.92;8.73;;;8.60;99.90;;;;;;5121792;28;20026;-73
2022/03/01 11:09:45;;;;;;;24.55;8.90;;;8.50;99.90;;;;;;5122175;28;20019;-72
2022/03/01 11:12:11;;;;;;;24.38;8.60;;;8.50;99.90;;;;;;5136326;27;20090;-71
2022/03/01 11:15:09;;;;;;;25.25;8.38;;;8.60;99.90;;;;;;5143225;27;20086;-72
2022/03/01 11:18:14;;;;;;;25.33;9.18;;;8.70;99.90;;;;;;5142594;27;20019;-73
2022/03/01 11:20:45;;;;;;;23.42;8.45;;;8.60;99.90;;;;;;5130826;27;20047;-70
2022/03/01 11:23:15;;;;;;;21.70;8.45;;;8.50;99.90;;;;;;5124928;27;20126;-72
2022/03/01 11:25:46;;;;;;;27.73;8.93;;;8.60;99.90;;;;;;5132327;27;20030;-72
2022/03/01 11:28:12;;;;;;;24.00;8.00;;;8.70;99.90;;;;;;5134592;27;20022;-72
2022/03/01 11:30:41;;;;;;;24.52;9.10;;;8.70;99.90;;;;;;5142252;27;20129;-72
2022/03/01 11:33:08;;;;;;;21.02;8.70;;;8.70;99.90;;;;;;5120531;28;20023;-71
2022/03/01 11:35:36;;;;;;;27.38;8.75;;;8.70;99.90;;;;;;5104473;28;20367;-73
2022/03/01 11:38:08;;;;;;;22.88;8.85;;;8.80;99.90;;;;;;5121732;28;20240;-75
2022/03/01 11:40:40;;;;;;;20.90;8.00;;;8.80;99.90;;;;;;5105206;28;20023;-72
2022/03/01 11:43:12;;;;;;;24.00;7.88;;;8.70;99.90;;;;;;5121667;28;20065;-72
2022/03/01 11:45:39;;;;;;;20.52;7.60;;;8.80;99.90;;;;;;5121590;28;20061;-72
2022/03/01 11:48:11;;;;;;;19.15;7.95;;;8.80;99.90;;;;;;5122806;28;20106;-73
2022/03/01 11:50:45;;;;;;;17.83;7.22;;;8.90;99.90;;;;;;5105172;28;20024;-74
2022/03/01 11:53:14;;;;;;;13.60;6.70;;;8.90;99.90;;;;;;5122594;28;20019;-73
2022/03/01 11:55:45;;;;;;;24.00;7.95;;;8.90;99.90;;;;;;5122143;28;20030;-74
2022/03/01 11:58:12;;;;;;;15.77;7.10;;;8.90;99.90;;;;;;5121198;28;20035;-76
2022/03/01 12:00:39;;;;;;;23.63;7.00;;;8.90;99.90;;;;;;5122120;28;20031;-75
2022/03/01 12:03:11;;;;;;;13.73;6.68;;;8.90;99.90;;;;;;5104271;28;20023;-73
2022/03/01 12:05:37;;;;;;;;;;;8.90;99.90;;;;;;5136419;28;20035;-74
2022/03/01 12:08:12;;;;;;;13.68;5.85;;;8.90;99.90;;;;;;5122526;28;19939;-74
2022/03/01 12:10:38;;;;;;;17.42;6.55;;;9.00;99.90;;;;;;5121120;28;20023;-73
2022/03/01 12:13:06;;;;;;;17.35;7.00;;;9.00;99.90;;;;;;5121774;28;20235;-73
2022/03/01 12:15:35;;;;;;;18.80;7.20;;;8.90;99.90;;;;;;5111209;28;20218;-74
2022/03/01 12:18:16;;;;;;;19.58;6.45;;;8.90;99.90;;;;;;5122379;28;20016;-72
2022/03/01 12:20:46;;;;;;;22.50;8.07;;;9.00;99.90;;;;;;5122383;28;20027;-73
2022/03/01 12:23:32;;;;;;;15.43;5.45;;;9.00;99.90;;;;;;5104307;28;20035;-71
2022/03/01 12:26:00;;;;;;;24.83;8.68;;;8.90;99.90;;;;;;5120754;28;20207;-75
2022/03/01 12:28:29;;;;;;;20.55;6.72;;;8.80;99.90;;;;;;5122000;28;20015;-72
2022/03/01 12:30:58;;;;;;;17.80;6.97;;;8.90;99.90;;;;;;5125812;27;20015;-74
2022/03/01 12:33:23;;;;;;;13.95;6.72;;;9.00;99.90;;;;;;5123946;28;20027;-77
2022/03/01 12:36:03;;;;;;;12.48;5.75;;;9.00;99.90;;;;;;5126533;27;20023;-73
2022/03/01 12:38:31;;;;;;;15.32;5.50;;;8.90;99.90;;;;;;5125093;28;20015;-74
2022/03/01 12:41:07;;;;;;;18.98;6.78;;;8.80;99.90;;;;;;5107765;28;20023;-74
2022/03/01 12:43:33;;;;;;;11.45;6.20;;;8.90;99.90;;;;;;5125430;28;20207;-73
2022/03/01 12:45:59;;;;;;;8.75;5.25;;;8.90;99.90;;;;;;5138293;27;20106;-71
2022/03/01 12:48:24;;;;;;;11.95;5.80;;;8.90;99.90;;;;;;5142581;27;20015;-73